»·PEaware :: AAL2548 KPHX-KSNA

AAL2548 :: KPHX-KSNA

FLIGHT INFORMATION

Flight Status: Arrived
Operator:
American Airlines
More flights by this operator :: More flights under this callsign
Pilot: Justin S. (10202)
Aircraft: AIRBUS A320
(A320)
More flights by this aircraft type
Origin: KPHX Phoenix Sky Harbor Intl
United States
Destination: KSNA John Wayne-Orange Co
United States
More flights between these airports :: More routes between these airports
Route: +IZZZO6 HRRBR EMLLD DSNEE2
File this flight plan on PilotEdge
Remarks:
Altitude:
(Current/Filed)
32,000ft
Speed:
(Current/Filed)
367kts
Departed: 11-Jan-18 04:45 PM
Arrived: 11-Jan-18 05:45 PM
Distance/Time
Traveled:
293nm/1:00
Distance/Time
To Go:
Arrived

Flight Plot

Page will automatically refresh every two minutes.

Flight plan parsing failed; only flown route is shown


Map Options




Map Legend


Flown Route
Filed Route
Departure Airport
Arrival Airport
Navaid (VOR, NDB)
Fix

Horizontal Profiles

Position Reports

Time Latitude Longitude Heading Altitude Ground
Speed
11-Jan-18 16:26 33.438010 -111.999870 109 1149ft 0kts
11-Jan-18 16:27 33.438010 -111.999870 109 1149ft 0kts
11-Jan-18 16:28 33.438010 -111.999870 109 1149ft 0kts
11-Jan-18 16:29 33.438010 -111.999870 109 1149ft 0kts
11-Jan-18 16:30 33.438010 -111.999870 109 1149ft 0kts
11-Jan-18 16:31 33.438010 -111.999870 109 1149ft 0kts
11-Jan-18 16:32 33.438010 -111.999870 109 1149ft 0kts
11-Jan-18 16:34 33.438010 -111.999870 109 1149ft 0kts
11-Jan-18 16:35 33.438010 -111.999870 109 1149ft 0kts
11-Jan-18 16:36 33.438010 -111.999870 109 1149ft 0kts
11-Jan-18 16:37 33.438010 -111.999870 109 1149ft 0kts
11-Jan-18 16:38 33.438010 -111.999870 109 1149ft 0kts
11-Jan-18 16:39 33.438010 -111.999870 109 1149ft 0kts
11-Jan-18 16:40 33.438010 -111.999870 109 1149ft 0kts
11-Jan-18 16:41 33.438181 -112.000434 109 1149ft 0kts
11-Jan-18 16:42 33.438181 -112.000434 109 1149ft 0kts
11-Jan-18 16:43 33.438181 -112.000433 109 1149ft 0kts
11-Jan-18 16:44 33.438180 -112.000432 109 1149ft 0kts
11-Jan-18 16:45 33.438253 -112.000363 14 1149ft 2kts
11-Jan-18 16:46 33.439716 -112.002665 269 1149ft 15kts
11-Jan-18 16:47 33.439717 -112.007949 270 1149ft 18kts
11-Jan-18 16:48 33.439714 -112.014304 270 1149ft 25kts
11-Jan-18 16:49 33.439711 -112.023046 270 1149ft 24kts
11-Jan-18 16:50 33.439746 -112.029370 289 1149ft 8kts
11-Jan-18 16:51 33.440843 -112.022079 89 1149ft 106kts
11-Jan-18 16:52 33.440327 -111.970988 94 3225ft 165kts
11-Jan-18 16:53 33.436557 -111.905163 92 5312ft 230kts
11-Jan-18 16:54 33.399162 -111.845882 166 8707ft 257kts
11-Jan-18 16:55 33.351916 -111.896173 277 11886ft 260kts
11-Jan-18 16:56 33.364839 -111.985928 282 14130ft 306kts
11-Jan-18 16:57 33.380143 -112.096173 282 15485ft 366kts
11-Jan-18 16:58 33.397773 -112.221855 282 17570ft 389kts
11-Jan-18 16:59 33.415712 -112.351222 282 19918ft 398kts
11-Jan-18 17:00 33.433898 -112.482764 282 21098ft 400kts
11-Jan-18 17:01 33.450319 -112.615071 275 22503ft 408kts
11-Jan-18 17:02 33.451979 -112.751705 273 24420ft 414kts
11-Jan-18 17:03 33.468704 -112.887067 285 26342ft 409kts
11-Jan-18 17:04 33.493833 -113.020075 283 28064ft 410kts
11-Jan-18 17:05 33.518469 -113.152988 283 30126ft 399kts
11-Jan-18 17:06 33.541797 -113.279798 282 32094ft 386kts
11-Jan-18 17:07 33.564710 -113.404775 282 32110ft 384kts
11-Jan-18 17:08 33.587606 -113.530422 281 32109ft 385kts
11-Jan-18 17:09 33.611052 -113.655579 282 32114ft 385kts
11-Jan-18 17:10 33.634298 -113.781204 281 32083ft 386kts
11-Jan-18 17:11 33.664354 -113.904297 292 32116ft 387kts
11-Jan-18 17:12 33.710126 -114.021250 292 32120ft 388kts
11-Jan-18 17:13 33.754529 -114.139989 287 32139ft 387kts
11-Jan-18 17:14 33.771991 -114.267022 277 32166ft 386kts
11-Jan-18 17:15 33.787036 -114.395495 277 32146ft 387kts
11-Jan-18 17:16 33.801794 -114.523611 277 32150ft 387kts
11-Jan-18 17:17 33.816457 -114.651961 277 32101ft 389kts
11-Jan-18 17:18 33.831036 -114.781109 277 32120ft 389kts
11-Jan-18 17:19 33.845548 -114.910171 277 32128ft 390kts
11-Jan-18 17:20 33.859962 -115.039784 277 32129ft 391kts
11-Jan-18 17:21 33.874264 -115.169358 276 32170ft 391kts
11-Jan-18 17:22 33.888454 -115.299019 276 32188ft 391kts
11-Jan-18 17:23 33.902550 -115.429431 276 32189ft 392kts
11-Jan-18 17:24 33.916515 -115.559472 276 32202ft 392kts
11-Jan-18 17:25 33.928943 -115.689844 274 32200ft 392kts
11-Jan-18 17:26 33.938187 -115.821201 273 32159ft 393kts
11-Jan-18 17:27 33.947396 -115.951795 274 31638ft 386kts
11-Jan-18 17:28 33.956269 -116.080315 274 29387ft 388kts
11-Jan-18 17:29 33.963333 -116.211166 266 27090ft 396kts
11-Jan-18 17:30 33.947047 -116.342943 262 24971ft 388kts
11-Jan-18 17:31 33.931569 -116.470374 262 22863ft 381kts
11-Jan-18 17:32 33.915761 -116.595371 261 20715ft 375kts
11-Jan-18 17:33 33.899774 -116.718815 260 18608ft 370kts
11-Jan-18 17:34 33.885732 -116.840204 262 16432ft 362kts
11-Jan-18 17:35 33.872859 -116.957752 262 14383ft 348kts
11-Jan-18 17:36 33.860970 -117.065534 262 13760ft 300kts
11-Jan-18 17:37 33.850681 -117.158211 262 12753ft 272kts
11-Jan-18 17:38 33.840665 -117.247381 262 11031ft 265kts
11-Jan-18 17:39 33.830816 -117.334715 262 9672ft 262kts
11-Jan-18 17:40 33.820993 -117.420984 262 8415ft 258kts
11-Jan-18 17:41 33.820500 -117.507096 271 7139ft 255kts
11-Jan-18 17:42 33.822414 -117.591180 271 6006ft 246kts
11-Jan-18 17:43 33.824551 -117.669966 271 6001ft 233kts
11-Jan-18 17:44 33.826614 -117.743415 271 5994ft 201kts
11-Jan-18 17:45 33.852599 -117.791872 9 5870ft 199kts
11-Jan-18 17:46 33.858728 -117.744072 158 4791ft 196kts
11-Jan-18 17:47 33.812788 -117.772630 224 3581ft 203kts
11-Jan-18 17:48 33.768191 -117.810733 208 2650ft 183kts
11-Jan-18 17:49 33.726016 -117.837097 207 1541ft 151kts
11-Jan-18 17:50 33.691454 -117.858956 207 324ft 128kts
11-Jan-18 17:51 33.670525 -117.872092 200 70ft 25kts
11-Jan-18 17:52 33.668957 -117.871345 112 70ft 6kts
11-Jan-18 17:53 33.671100 -117.868902 37 70ft 4kts
11-Jan-18 17:54 33.674159 -117.866454 27 70ft 19kts
11-Jan-18 17:55 33.679580 -117.863028 26 70ft 19kts
11-Jan-18 17:56 33.680353 -117.861678 117 70ft 0kts
11-Jan-18 17:57 33.680353 -117.861678 117 70ft 0kts
11-Jan-18 17:58 33.680353 -117.861678 117 70ft 0kts
11-Jan-18 17:59 33.680353 -117.861678 117 70ft 0kts
11-Jan-18 18:00 33.680353 -117.861678 117 70ft 0kts
11-Jan-18 18:01 33.680353 -117.861678 117 70ft 0kts
11-Jan-18 18:02 33.680353 -117.861678 117 70ft 0kts
11-Jan-18 18:03 33.680353 -117.861678 117 70ft 0kts
11-Jan-18 18:04 33.680353 -117.861678 117 70ft 0kts
11-Jan-18 18:05 33.680353 -117.861678 117 70ft 0kts

Navigation Log

Ident Type
Flight plan parsing failed, navigation log unavailable